RYR24Y GCLA-LEMD
Flight info
| Callsign | RYR24Y |
|---|---|
| Flight time | N/A |
| Altitude | 38000 |
| Route | KONBA UN866 OSDIV/N0446F400 UN866 BEXAL DCT SOTEX DCT OGERO Z409 TLD |
| Aircraft | B38M/M-SDE1FGHILORVWXY/HB1 |
Departure
| Time | 2026-05-07 14:31 |
|---|---|
| Airport | La Palma Airport (GCLA) |
Arrival
| Time | N/A |
|---|---|
| Airport | Adolfo Suárez Madrid–Barajas Airport (LEMD) |
| Time | Latitude | Longitude | Altitude | Speed | Heading |
|---|---|---|---|---|---|
| 2026-05-07 14:23 | 28.62084 | -17.75373 | 116 ft | 0 kts | 87° |
| 2026-05-07 14:25 | 28.62084 | -17.75383 | 116 ft | 4 kts | 84° |
| 2026-05-07 14:25 | 28.62078 | -17.75412 | 115 ft | 4 kts | 64° |
| 2026-05-07 14:26 | 28.62062 | -17.75435 | 113 ft | 4 kts | 26° |
| 2026-05-07 14:26 | 28.62048 | -17.75438 | 113 ft | 1 kts | 358° |
| 2026-05-07 14:26 | 28.62044 | -17.75438 | 113 ft | 0 kts | 358° |
| 2026-05-07 14:28 | 28.62045 | -17.75438 | 113 ft | 0 kts | 358° |
| 2026-05-07 14:28 | 28.62068 | -17.75448 | 114 ft | 7 kts | 322° |
| 2026-05-07 14:28 | 28.62079 | -17.75517 | 117 ft | 11 kts | 244° |
| 2026-05-07 14:29 | 28.61985 | -17.75546 | 119 ft | 19 kts | 178° |
| 2026-05-07 14:29 | 28.61839 | -17.75541 | 114 ft | 14 kts | 181° |
| 2026-05-07 14:29 | 28.61733 | -17.75550 | 114 ft | 16 kts | 189° |
| 2026-05-07 14:29 | 28.61659 | -17.75560 | 113 ft | 2 kts | 134° |
| 2026-05-07 14:30 | 28.61660 | -17.75554 | 113 ft | 1 kts | 80° |
| 2026-05-07 14:30 | 28.61678 | -17.75541 | 112 ft | 8 kts | 9° |
| 2026-05-07 14:30 | 28.61852 | -17.75544 | 113 ft | 63 kts | 359° |
| 2026-05-07 14:30 | 28.62594 | -17.75560 | 111 ft | 151 kts | 359° |
| 2026-05-07 14:31 | 28.63815 | -17.75584 | 210 ft | 195 kts | 357° |
| 2026-05-07 14:31 | 28.65255 | -17.75480 | 1163 ft | 212 kts | 18° |
| 2026-05-07 14:31 | 28.66405 | -17.74560 | 2491 ft | 209 kts | 56° |
| 2026-05-07 14:31 | 28.66779 | -17.72999 | 3547 ft | 207 kts | 91° |
| 2026-05-07 14:32 | 28.66750 | -17.71325 | 4449 ft | 218 kts | 89° |
| 2026-05-07 14:32 | 28.66785 | -17.69536 | 5234 ft | 232 kts | 88° |
| 2026-05-07 14:32 | 28.66836 | -17.67681 | 6203 ft | 237 kts | 85° |
| 2026-05-07 14:32 | 28.67334 | -17.65866 | 6840 ft | 254 kts | 54° |
| 2026-05-07 14:33 | 28.68468 | -17.64242 | 7487 ft | 271 kts | 47° |
| 2026-05-07 14:33 | 28.69713 | -17.62538 | 8179 ft | 287 kts | 48° |
| 2026-05-07 14:33 | 28.70998 | -17.60773 | 9203 ft | 289 kts | 48° |
| 2026-05-07 14:33 | 28.72275 | -17.58997 | 10139 ft | 295 kts | 47° |
| 2026-05-07 14:34 | 28.73615 | -17.57140 | 10775 ft | 312 kts | 47° |
| 2026-05-07 14:34 | 28.75029 | -17.55184 | 11400 ft | 326 kts | 47° |
| 2026-05-07 14:34 | 28.76498 | -17.53152 | 12115 ft | 335 kts | 47° |
| 2026-05-07 14:34 | 28.77986 | -17.51094 | 12993 ft | 340 kts | 48° |
| 2026-05-07 14:35 | 28.79490 | -17.49013 | 13823 ft | 347 kts | 48° |
| 2026-05-07 14:35 | 28.81040 | -17.46867 | 14588 ft | 352 kts | 48° |
| 2026-05-07 14:35 | 28.82606 | -17.44697 | 15356 ft | 357 kts | 48° |
| 2026-05-07 14:35 | 28.84202 | -17.42485 | 16131 ft | 363 kts | 48° |
| 2026-05-07 14:36 | 28.85821 | -17.40242 | 16881 ft | 368 kts | 48° |
| 2026-05-07 14:36 | 28.87458 | -17.37971 | 17602 ft | 374 kts | 48° |
| 2026-05-07 14:36 | 28.89125 | -17.35658 | 18325 ft | 379 kts | 48° |
| 2026-05-07 14:36 | 28.90793 | -17.33342 | 18955 ft | 383 kts | 48° |
| 2026-05-07 14:37 | 28.92495 | -17.30976 | 19599 ft | 388 kts | 48° |
| 2026-05-07 14:37 | 28.95956 | -17.26162 | 20815 ft | 396 kts | 48° |
| 2026-05-07 14:37 | 28.97718 | -17.23710 | 21435 ft | 401 kts | 48° |
| 2026-05-07 14:38 | 28.99496 | -17.21234 | 22046 ft | 405 kts | 48° |
| 2026-05-07 14:38 | 29.01281 | -17.18745 | 22552 ft | 412 kts | 48° |
| 2026-05-07 14:38 | 29.03098 | -17.16212 | 23177 ft | 415 kts | 48° |
| 2026-05-07 14:38 | 29.04937 | -17.13645 | 23709 ft | 419 kts | 48° |
| 2026-05-07 14:39 | 29.06798 | -17.11048 | 24210 ft | 422 kts | 48° |
| 2026-05-07 14:39 | 29.08665 | -17.08440 | 24737 ft | 424 kts | 47° |
| 2026-05-07 14:39 | 29.10535 | -17.05825 | 25248 ft | 427 kts | 47° |
| 2026-05-07 14:39 | 29.12397 | -17.03220 | 25736 ft | 429 kts | 47° |
| 2026-05-07 14:40 | 29.14296 | -17.00562 | 26226 ft | 432 kts | 47° |
| 2026-05-07 14:40 | 29.16208 | -16.97884 | 26714 ft | 434 kts | 47° |
| 2026-05-07 14:40 | 29.18132 | -16.95188 | 27193 ft | 437 kts | 47° |
| 2026-05-07 14:40 | 29.20036 | -16.92517 | 27660 ft | 439 kts | 47° |
| 2026-05-07 14:41 | 29.21981 | -16.89786 | 28126 ft | 442 kts | 47° |
| 2026-05-07 14:41 | 29.23930 | -16.87050 | 28581 ft | 444 kts | 47° |
| 2026-05-07 14:41 | 29.25881 | -16.84308 | 29031 ft | 447 kts | 47° |
| 2026-05-07 14:41 | 29.27830 | -16.81567 | 29462 ft | 449 kts | 47° |
| 2026-05-07 14:42 | 29.29809 | -16.78783 | 29894 ft | 452 kts | 47° |
| 2026-05-07 14:42 | 29.31805 | -16.75973 | 30286 ft | 454 kts | 47° |
| 2026-05-07 14:42 | 29.33800 | -16.73162 | 30675 ft | 456 kts | 47° |
| 2026-05-07 14:42 | 29.35815 | -16.70320 | 31017 ft | 459 kts | 47° |
| 2026-05-07 14:43 | 29.37810 | -16.67504 | 31384 ft | 461 kts | 47° |
| 2026-05-07 14:43 | 29.39843 | -16.64634 | 31742 ft | 463 kts | 47° |
| 2026-05-07 14:43 | 29.41874 | -16.61764 | 32088 ft | 465 kts | 47° |
| 2026-05-07 14:43 | 29.43921 | -16.58870 | 32439 ft | 467 kts | 46° |
| 2026-05-07 14:44 | 29.45277 | -16.56951 | 32667 ft | 468 kts | 46° |
| 2026-05-07 14:44 | 29.48002 | -16.53092 | 33103 ft | 471 kts | 46° |
| 2026-05-07 14:44 | 29.49403 | -16.51107 | 33346 ft | 472 kts | 46° |
| 2026-05-07 14:44 | 29.51454 | -16.48200 | 33686 ft | 475 kts | 46° |
| 2026-05-07 14:45 | 29.53534 | -16.45250 | 34012 ft | 477 kts | 46° |
| 2026-05-07 14:45 | 29.55623 | -16.42286 | 34325 ft | 478 kts | 46° |
| 2026-05-07 14:45 | 29.57705 | -16.39330 | 34692 ft | 477 kts | 46° |
| 2026-05-07 14:45 | 29.59743 | -16.36308 | 35092 ft | 477 kts | 48° |
| 2026-05-07 14:46 | 29.61741 | -16.33248 | 35498 ft | 476 kts | 47° |
| 2026-05-07 14:46 | 29.63738 | -16.30210 | 35850 ft | 475 kts | 47° |
| 2026-05-07 14:46 | 29.65727 | -16.27190 | 36223 ft | 474 kts | 47° |
| 2026-05-07 14:46 | 29.67692 | -16.24202 | 36591 ft | 472 kts | 47° |
| 2026-05-07 14:47 | 29.69673 | -16.21189 | 36947 ft | 471 kts | 47° |
| 2026-05-07 14:47 | 29.71655 | -16.18173 | 37302 ft | 470 kts | 46° |
| 2026-05-07 14:47 | 29.73615 | -16.15189 | 37642 ft | 468 kts | 46° |
| 2026-05-07 14:47 | 29.75580 | -16.12193 | 37985 ft | 467 kts | 46° |
| 2026-05-07 14:48 | 29.77510 | -16.09250 | 38304 ft | 466 kts | 46° |
| 2026-05-07 14:48 | 29.79459 | -16.06275 | 38611 ft | 464 kts | 46° |
| 2026-05-07 14:48 | 29.81407 | -16.03299 | 38864 ft | 463 kts | 46° |
| 2026-05-07 14:48 | 29.83352 | -16.00326 | 39057 ft | 464 kts | 46° |
| 2026-05-07 14:49 | 29.85297 | -15.97351 | 39238 ft | 464 kts | 46° |
| 2026-05-07 14:49 | 29.87207 | -15.94428 | 39415 ft | 464 kts | 46° |
| 2026-05-07 14:49 | 29.89155 | -15.91444 | 39552 ft | 465 kts | 46° |
| 2026-05-07 14:49 | 29.91095 | -15.88469 | 39703 ft | 465 kts | 47° |
| 2026-05-07 14:50 | 29.93049 | -15.85471 | 39841 ft | 466 kts | 47° |
| 2026-05-07 14:50 | 29.94997 | -15.82483 | 39978 ft | 466 kts | 47° |
| 2026-05-07 14:50 | 29.99473 | -15.77312 | 40038 ft | 442 kts | 21° |
| 2026-05-07 14:51 | 30.05086 | -15.74771 | 40040 ft | 435 kts | 12° |
| 2026-05-07 14:51 | 30.10864 | -15.72616 | 40045 ft | 435 kts | 10° |
| 2026-05-07 14:52 | 30.16619 | -15.70565 | 40045 ft | 434 kts | 10° |
| 2026-05-07 14:52 | 30.22418 | -15.68521 | 40045 ft | 435 kts | 10° |
| 2026-05-07 14:53 | 30.28170 | -15.66495 | 40045 ft | 435 kts | 10° |
| 2026-05-07 14:53 | 30.33962 | -15.64452 | 40052 ft | 436 kts | 10° |
| 2026-05-07 14:54 | 30.39743 | -15.62410 | 40044 ft | 435 kts | 10° |
| 2026-05-07 14:54 | 30.45547 | -15.60357 | 40045 ft | 436 kts | 10° |
| 2026-05-07 14:55 | 30.51361 | -15.58298 | 40047 ft | 436 kts | 10° |
| 2026-05-07 14:55 | 30.57112 | -15.56260 | 40047 ft | 436 kts | 10° |
| 2026-05-07 14:56 | 30.62939 | -15.54191 | 40050 ft | 437 kts | 10° |
| 2026-05-07 14:56 | 30.68762 | -15.52122 | 40048 ft | 437 kts | 10° |
| 2026-05-07 14:57 | 30.74555 | -15.50060 | 40049 ft | 437 kts | 10° |
| 2026-05-07 14:57 | 30.80380 | -15.47985 | 40048 ft | 437 kts | 10° |
| 2026-05-07 14:58 | 30.86171 | -15.45919 | 40074 ft | 437 kts | 10° |
| 2026-05-07 14:58 | 30.92019 | -15.43830 | 40051 ft | 439 kts | 10° |
| 2026-05-07 14:59 | 30.97835 | -15.41750 | 40045 ft | 439 kts | 10° |
| 2026-05-07 14:59 | 31.03685 | -15.39654 | 40045 ft | 439 kts | 10° |
| 2026-05-07 15:00 | 31.09503 | -15.37568 | 40049 ft | 439 kts | 10° |
| 2026-05-07 15:00 | 31.15360 | -15.35466 | 40060 ft | 439 kts | 10° |
| 2026-05-07 15:01 | 31.21196 | -15.33367 | 40048 ft | 441 kts | 10° |
| 2026-05-07 15:01 | 31.27057 | -15.31255 | 40045 ft | 441 kts | 11° |
| 2026-05-07 15:02 | 31.29888 | -15.29761 | 40022 ft | 453 kts | 27° |
| 2026-05-07 15:02 | 31.32392 | -15.27442 | 40064 ft | 461 kts | 35° |
| 2026-05-07 15:02 | 31.37178 | -15.22451 | 40046 ft | 465 kts | 36° |
| 2026-05-07 15:03 | 31.41959 | -15.17317 | 40047 ft | 466 kts | 36° |
| 2026-05-07 15:03 | 31.46715 | -15.12162 | 40054 ft | 467 kts | 36° |
| 2026-05-07 15:04 | 31.51463 | -15.07006 | 40050 ft | 468 kts | 36° |
| 2026-05-07 15:04 | 31.56250 | -15.01800 | 40047 ft | 468 kts | 37° |
| 2026-05-07 15:05 | 31.61027 | -14.96596 | 40044 ft | 468 kts | 37° |
| 2026-05-07 15:05 | 31.65766 | -14.91427 | 40048 ft | 467 kts | 37° |
| 2026-05-07 15:06 | 31.70534 | -14.86218 | 40047 ft | 467 kts | 37° |
| 2026-05-07 15:06 | 31.75262 | -14.81046 | 40056 ft | 467 kts | 37° |
| 2026-05-07 15:07 | 31.80043 | -14.75807 | 40049 ft | 469 kts | 37° |
| 2026-05-07 15:07 | 31.84797 | -14.70591 | 40047 ft | 469 kts | 37° |
| 2026-05-07 15:08 | 31.89571 | -14.65345 | 40045 ft | 469 kts | 37° |
| 2026-05-07 15:08 | 31.94319 | -14.60120 | 40037 ft | 470 kts | 37° |
| 2026-05-07 15:09 | 31.99095 | -14.54856 | 40051 ft | 469 kts | 37° |
| 2026-05-07 15:09 | 32.03850 | -14.49607 | 40043 ft | 468 kts | 37° |
| 2026-05-07 15:10 | 32.08595 | -14.44362 | 40050 ft | 470 kts | 37° |
| 2026-05-07 15:10 | 32.13366 | -14.39079 | 40043 ft | 470 kts | 37° |
| 2026-05-07 15:11 | 32.18100 | -14.33831 | 40039 ft | 470 kts | 37° |
| 2026-05-07 15:11 | 32.22881 | -14.28521 | 40040 ft | 470 kts | 37° |
| 2026-05-07 15:12 | 32.27646 | -14.23221 | 40042 ft | 470 kts | 37° |
| 2026-05-07 15:12 | 32.32386 | -14.17942 | 40039 ft | 470 kts | 37° |
| 2026-05-07 15:13 | 32.37141 | -14.12638 | 40059 ft | 470 kts | 37° |
| 2026-05-07 15:13 | 32.41883 | -14.07341 | 40041 ft | 471 kts | 37° |
| 2026-05-07 15:14 | 32.46651 | -14.02006 | 40036 ft | 471 kts | 37° |
| 2026-05-07 15:14 | 32.51422 | -13.96659 | 40031 ft | 471 kts | 37° |
| 2026-05-07 15:15 | 32.56151 | -13.91351 | 40031 ft | 471 kts | 37° |
| 2026-05-07 15:15 | 32.60920 | -13.85990 | 40032 ft | 471 kts | 37° |
| 2026-05-07 15:16 | 32.65676 | -13.80637 | 40028 ft | 470 kts | 37° |
| 2026-05-07 15:16 | 32.70426 | -13.75281 | 40037 ft | 470 kts | 37° |
| 2026-05-07 15:17 | 32.75137 | -13.69961 | 40026 ft | 470 kts | 37° |
| 2026-05-07 15:17 | 32.79894 | -13.64581 | 40027 ft | 470 kts | 37° |
| 2026-05-07 15:18 | 32.84605 | -13.59245 | 40032 ft | 470 kts | 37° |
| 2026-05-07 15:18 | 32.89352 | -13.53859 | 40029 ft | 470 kts | 37° |
| 2026-05-07 15:19 | 32.94088 | -13.48479 | 40044 ft | 470 kts | 37° |
| 2026-05-07 15:19 | 32.98800 | -13.43115 | 40033 ft | 470 kts | 37° |
| 2026-05-07 15:20 | 33.03538 | -13.37715 | 40029 ft | 471 kts | 37° |
| 2026-05-07 15:20 | 33.08263 | -13.32320 | 40023 ft | 471 kts | 37° |
| 2026-05-07 15:21 | 33.12997 | -13.26908 | 40023 ft | 471 kts | 37° |
| 2026-05-07 15:21 | 33.17733 | -13.21484 | 40023 ft | 471 kts | 37° |
| 2026-05-07 15:22 | 33.22437 | -13.16089 | 40024 ft | 471 kts | 37° |
| 2026-05-07 15:22 | 33.27163 | -13.10659 | 40044 ft | 471 kts | 37° |
| 2026-05-07 15:23 | 33.31871 | -13.05242 | 40023 ft | 472 kts | 37° |
| 2026-05-07 15:23 | 33.36611 | -12.99780 | 40021 ft | 472 kts | 37° |
| 2026-05-07 15:24 | 33.41347 | -12.94312 | 40020 ft | 472 kts | 37° |
| 2026-05-07 15:24 | 33.46044 | -12.88883 | 40020 ft | 472 kts | 37° |
| 2026-05-07 15:25 | 33.50778 | -12.83400 | 40021 ft | 472 kts | 37° |
| 2026-05-07 15:25 | 33.55505 | -12.77918 | 40044 ft | 472 kts | 38° |
| 2026-05-07 15:26 | 33.60219 | -12.72441 | 40023 ft | 473 kts | 37° |
| 2026-05-07 15:26 | 33.64930 | -12.66960 | 40021 ft | 473 kts | 37° |
| 2026-05-07 15:27 | 33.69662 | -12.61445 | 40021 ft | 473 kts | 37° |
| 2026-05-07 15:27 | 33.74381 | -12.55937 | 40021 ft | 473 kts | 38° |
| 2026-05-07 15:28 | 33.79077 | -12.50446 | 40021 ft | 473 kts | 38° |
| 2026-05-07 15:28 | 33.83788 | -12.44929 | 40018 ft | 473 kts | 38° |
| 2026-05-07 15:29 | 33.88512 | -12.39389 | 40039 ft | 473 kts | 37° |
| 2026-05-07 15:29 | 33.93193 | -12.33888 | 40020 ft | 472 kts | 37° |
| 2026-05-07 15:30 | 33.97895 | -12.28355 | 40017 ft | 472 kts | 38° |
| 2026-05-07 15:30 | 34.02588 | -12.22822 | 40010 ft | 472 kts | 38° |
| 2026-05-07 15:31 | 34.07260 | -12.17306 | 40015 ft | 472 kts | 38° |
| 2026-05-07 15:31 | 34.11963 | -12.11744 | 40011 ft | 472 kts | 38° |
| 2026-05-07 15:32 | 34.16621 | -12.06227 | 40015 ft | 473 kts | 38° |
| 2026-05-07 15:32 | 34.20529 | -12.01591 | 40024 ft | 472 kts | 37° |
| 2026-05-07 15:33 | 34.25218 | -11.96019 | 40015 ft | 472 kts | 38° |
| 2026-05-07 15:33 | 34.29906 | -11.90440 | 40015 ft | 472 kts | 38° |
| 2026-05-07 15:34 | 34.34555 | -11.84898 | 40012 ft | 472 kts | 38° |
| 2026-05-07 15:34 | 34.39240 | -11.79304 | 40013 ft | 472 kts | 38° |
| 2026-05-07 15:35 | 34.43926 | -11.73700 | 40024 ft | 473 kts | 38° |
| 2026-05-07 15:35 | 34.48613 | -11.68085 | 40011 ft | 474 kts | 38° |
| 2026-05-07 15:36 | 34.53267 | -11.62499 | 40009 ft | 474 kts | 38° |
| 2026-05-07 15:36 | 34.57964 | -11.56854 | 40007 ft | 474 kts | 38° |
| 2026-05-07 15:37 | 34.62628 | -11.51238 | 40007 ft | 474 kts | 38° |
| 2026-05-07 15:37 | 34.67319 | -11.45579 | 40007 ft | 474 kts | 38° |
| 2026-05-07 15:38 | 34.71966 | -11.39967 | 40035 ft | 474 kts | 38° |
| 2026-05-07 15:38 | 34.76672 | -11.34271 | 40012 ft | 476 kts | 38° |
| 2026-05-07 15:39 | 34.81342 | -11.28610 | 40012 ft | 475 kts | 38° |
| 2026-05-07 15:39 | 34.86019 | -11.22931 | 40006 ft | 473 kts | 38° |
| 2026-05-07 15:40 | 34.90675 | -11.17267 | 40007 ft | 474 kts | 38° |
| 2026-05-07 15:40 | 34.95319 | -11.11610 | 40007 ft | 474 kts | 38° |
| 2026-05-07 15:41 | 34.99981 | -11.05919 | 40036 ft | 474 kts | 38° |
| 2026-05-07 15:41 | 35.04654 | -11.00207 | 40006 ft | 474 kts | 38° |
| 2026-05-07 15:42 | 35.09281 | -10.94540 | 40001 ft | 474 kts | 38° |
| 2026-05-07 15:42 | 35.13937 | -10.88828 | 39998 ft | 472 kts | 38° |
| 2026-05-07 15:43 | 35.18569 | -10.83136 | 40003 ft | 472 kts | 38° |
| 2026-05-07 15:43 | 35.23164 | -10.77479 | 40003 ft | 472 kts | 38° |
| 2026-05-07 15:44 | 35.27797 | -10.71767 | 40019 ft | 472 kts | 38° |
| 2026-05-07 15:44 | 35.32426 | -10.66049 | 39996 ft | 471 kts | 38° |
| 2026-05-07 15:45 | 35.37012 | -10.60375 | 39994 ft | 471 kts | 38° |
| 2026-05-07 15:45 | 35.41613 | -10.54672 | 40009 ft | 470 kts | 38° |
| 2026-05-07 15:46 | 35.48481 | -10.46141 | 39997 ft | 467 kts | 38° |
| 2026-05-07 15:47 | 35.53026 | -10.40484 | 39998 ft | 468 kts | 38° |
| 2026-05-07 15:47 | 35.57603 | -10.34776 | 39997 ft | 468 kts | 38° |
| 2026-05-07 15:48 | 35.62165 | -10.29078 | 39991 ft | 468 kts | 38° |
| 2026-05-07 15:48 | 35.66710 | -10.23391 | 39993 ft | 468 kts | 38° |
| 2026-05-07 15:49 | 35.71270 | -10.17675 | 40003 ft | 466 kts | 38° |
| 2026-05-07 15:49 | 35.75791 | -10.11998 | 39989 ft | 464 kts | 38° |
| 2026-05-07 15:50 | 35.80318 | -10.06304 | 39990 ft | 465 kts | 38° |
| 2026-05-07 15:50 | 35.84818 | -10.00635 | 40005 ft | 465 kts | 39° |
| 2026-05-07 15:51 | 35.89351 | -9.94914 | 39988 ft | 465 kts | 39° |
| 2026-05-07 15:51 | 35.93873 | -9.89196 | 39988 ft | 466 kts | 39° |
| 2026-05-07 15:52 | 35.98368 | -9.83504 | 39986 ft | 466 kts | 39° |
| 2026-05-07 15:52 | 36.02880 | -9.77779 | 39979 ft | 463 kts | 39° |
| 2026-05-07 15:53 | 36.07379 | -9.72061 | 39981 ft | 463 kts | 39° |
| 2026-05-07 15:53 | 36.11839 | -9.66382 | 39999 ft | 463 kts | 39° |
| 2026-05-07 15:54 | 36.16340 | -9.60641 | 39983 ft | 464 kts | 39° |
| 2026-05-07 15:54 | 36.20813 | -9.54928 | 39982 ft | 464 kts | 39° |
| 2026-05-07 15:55 | 36.25306 | -9.49177 | 39977 ft | 464 kts | 39° |
| 2026-05-07 15:55 | 36.29790 | -9.43427 | 39982 ft | 464 kts | 40° |
| 2026-05-07 15:56 | 36.34276 | -9.37665 | 39970 ft | 463 kts | 40° |
| 2026-05-07 15:56 | 36.38723 | -9.31944 | 39995 ft | 463 kts | 40° |
| 2026-05-07 15:57 | 36.43202 | -9.26171 | 39974 ft | 463 kts | 40° |
| 2026-05-07 15:57 | 36.47668 | -9.20404 | 39972 ft | 463 kts | 40° |
| 2026-05-07 15:58 | 36.52142 | -9.14617 | 39969 ft | 463 kts | 40° |
| 2026-05-07 15:58 | 36.56585 | -9.08859 | 39982 ft | 463 kts | 40° |
| 2026-05-07 15:59 | 36.61058 | -9.03052 | 39968 ft | 464 kts | 40° |
| 2026-05-07 15:59 | 36.65490 | -8.97289 | 39997 ft | 464 kts | 41° |
| 2026-05-07 16:00 | 36.69964 | -8.91461 | 39967 ft | 463 kts | 41° |
| 2026-05-07 16:00 | 36.74394 | -8.85679 | 39965 ft | 464 kts | 41° |
| 2026-05-07 16:01 | 36.78855 | -8.79847 | 39962 ft | 464 kts | 41° |
| 2026-05-07 16:01 | 36.83293 | -8.74034 | 39957 ft | 464 kts | 41° |
| 2026-05-07 16:02 | 36.87752 | -8.68183 | 39957 ft | 466 kts | 41° |
| 2026-05-07 16:02 | 36.92237 | -8.62287 | 39989 ft | 468 kts | 41° |
| 2026-05-07 16:03 | 36.96697 | -8.56413 | 39961 ft | 468 kts | 42° |
| 2026-05-07 16:03 | 37.01182 | -8.50496 | 39960 ft | 468 kts | 42° |
| 2026-05-07 16:04 | 37.05666 | -8.44568 | 39960 ft | 468 kts | 42° |
| 2026-05-07 16:04 | 37.10118 | -8.38674 | 39957 ft | 468 kts | 42° |
| 2026-05-07 16:05 | 37.14592 | -8.32737 | 39958 ft | 469 kts | 42° |
| 2026-05-07 16:05 | 37.19078 | -8.26775 | 39977 ft | 473 kts | 42° |
| 2026-05-07 16:06 | 37.23606 | -8.20746 | 39954 ft | 473 kts | 42° |
| 2026-05-07 16:06 | 37.28121 | -8.14722 | 39968 ft | 473 kts | 42° |
| 2026-05-07 16:07 | 37.32632 | -8.08693 | 39950 ft | 473 kts | 42° |
| 2026-05-07 16:07 | 37.37113 | -8.02693 | 39950 ft | 473 kts | 43° |
| 2026-05-07 16:08 | 37.41635 | -7.96627 | 39955 ft | 474 kts | 43° |
| 2026-05-07 16:08 | 37.46113 | -7.90606 | 39982 ft | 473 kts | 43° |
| 2026-05-07 16:09 | 37.50611 | -7.84549 | 39952 ft | 473 kts | 43° |
| 2026-05-07 16:09 | 37.55115 | -7.78473 | 39951 ft | 473 kts | 43° |
| 2026-05-07 16:10 | 37.59588 | -7.72426 | 39952 ft | 473 kts | 43° |
| 2026-05-07 16:10 | 37.64079 | -7.66343 | 39951 ft | 473 kts | 43° |
| 2026-05-07 16:11 | 37.68565 | -7.60255 | 39955 ft | 474 kts | 43° |
| 2026-05-07 16:11 | 37.73053 | -7.54155 | 39964 ft | 477 kts | 43° |
| 2026-05-07 16:12 | 37.77572 | -7.47999 | 39949 ft | 477 kts | 43° |
| 2026-05-07 16:12 | 37.82102 | -7.41817 | 39943 ft | 477 kts | 43° |
| 2026-05-07 16:13 | 37.86575 | -7.35699 | 39944 ft | 477 kts | 43° |
| 2026-05-07 16:13 | 37.91093 | -7.29510 | 39948 ft | 477 kts | 43° |
| 2026-05-07 16:14 | 37.95584 | -7.23345 | 39940 ft | 477 kts | 43° |
| 2026-05-07 16:14 | 38.00093 | -7.17144 | 39946 ft | 479 kts | 43° |
| 2026-05-07 16:15 | 38.04608 | -7.10921 | 39936 ft | 479 kts | 43° |
| 2026-05-07 16:15 | 38.09089 | -7.04733 | 39936 ft | 479 kts | 43° |
| 2026-05-07 16:16 | 38.13604 | -6.98488 | 39931 ft | 479 kts | 43° |
| 2026-05-07 16:16 | 38.18110 | -6.92241 | 39930 ft | 479 kts | 43° |
| 2026-05-07 16:17 | 38.22587 | -6.86023 | 39932 ft | 479 kts | 43° |
| 2026-05-07 16:17 | 38.27090 | -6.79755 | 39925 ft | 479 kts | 43° |
| 2026-05-07 16:18 | 38.31596 | -6.73473 | 39930 ft | 479 kts | 43° |
| 2026-05-07 16:18 | 38.36053 | -6.67245 | 39927 ft | 479 kts | 43° |
| 2026-05-07 16:19 | 38.40542 | -6.60961 | 39918 ft | 479 kts | 43° |
| 2026-05-07 16:19 | 38.45008 | -6.54696 | 39926 ft | 479 kts | 43° |
| 2026-05-07 16:20 | 38.49498 | -6.48385 | 39927 ft | 478 kts | 44° |
| 2026-05-07 16:20 | 38.53195 | -6.43178 | 39923 ft | 476 kts | 44° |
| 2026-05-07 16:21 | 38.57645 | -6.36901 | 39920 ft | 475 kts | 44° |
| 2026-05-07 16:21 | 38.62083 | -6.30627 | 39919 ft | 475 kts | 44° |
| 2026-05-07 16:22 | 38.66525 | -6.24337 | 39920 ft | 475 kts | 44° |
| 2026-05-07 16:22 | 38.70927 | -6.18089 | 39923 ft | 475 kts | 44° |
| 2026-05-07 16:23 | 38.75359 | -6.11788 | 39927 ft | 475 kts | 44° |
| 2026-05-07 16:23 | 38.79768 | -6.05506 | 39917 ft | 474 kts | 45° |
| 2026-05-07 16:24 | 38.84173 | -5.99216 | 39920 ft | 474 kts | 45° |
| 2026-05-07 16:24 | 38.88544 | -5.92962 | 39919 ft | 474 kts | 45° |
| 2026-05-07 16:25 | 38.92951 | -5.86646 | 39916 ft | 474 kts | 45° |
| 2026-05-07 16:25 | 38.97334 | -5.80351 | 39913 ft | 474 kts | 45° |
| 2026-05-07 16:26 | 39.01722 | -5.74036 | 39915 ft | 473 kts | 45° |
| 2026-05-07 16:26 | 39.06107 | -5.67712 | 39915 ft | 473 kts | 46° |
| 2026-05-07 16:27 | 39.10494 | -5.61372 | 39912 ft | 474 kts | 46° |
| 2026-05-07 16:27 | 39.14851 | -5.55065 | 39912 ft | 474 kts | 46° |
| 2026-05-07 16:28 | 39.19229 | -5.48716 | 39914 ft | 474 kts | 46° |
| 2026-05-07 16:28 | 39.23611 | -5.42350 | 39926 ft | 478 kts | 46° |
| 2026-05-07 16:29 | 39.28024 | -5.35925 | 39911 ft | 477 kts | 46° |
| 2026-05-07 16:29 | 39.32433 | -5.29492 | 39909 ft | 478 kts | 46° |
| 2026-05-07 16:30 | 39.36844 | -5.23045 | 39912 ft | 478 kts | 46° |
| 2026-05-07 16:30 | 39.41221 | -5.16633 | 39910 ft | 478 kts | 46° |
| 2026-05-07 16:31 | 39.45632 | -5.10158 | 39911 ft | 478 kts | 47° |
| 2026-05-07 16:31 | 39.50032 | -5.03687 | 39908 ft | 478 kts | 47° |
| 2026-05-07 16:32 | 39.54402 | -4.97247 | 39921 ft | 478 kts | 47° |
| 2026-05-07 16:32 | 39.58777 | -4.90786 | 39921 ft | 479 kts | 47° |
| 2026-05-07 16:33 | 39.63184 | -4.84266 | 39919 ft | 480 kts | 47° |
| 2026-05-07 16:33 | 39.67575 | -4.77754 | 39921 ft | 480 kts | 47° |
| 2026-05-07 16:34 | 39.71943 | -4.71264 | 39932 ft | 480 kts | 47° |
| 2026-05-07 16:34 | 39.76338 | -4.64720 | 39921 ft | 479 kts | 47° |
| 2026-05-07 16:35 | 39.80704 | -4.58207 | 39923 ft | 480 kts | 47° |
| 2026-05-07 16:35 | 39.85087 | -4.51654 | 39926 ft | 481 kts | 48° |
| 2026-05-07 16:36 | 39.89447 | -4.45076 | 39917 ft | 482 kts | 52° |
| 2026-05-07 16:36 | 39.91148 | -4.41333 | 39905 ft | 479 kts | 69° |
| 2026-05-07 16:36 | 39.92023 | -4.37164 | 39939 ft | 477 kts | 84° |
| 2026-05-07 16:36 | 39.92121 | -4.32843 | 39918 ft | 476 kts | 98° |
| 2026-05-07 16:37 | 39.91448 | -4.28634 | 39935 ft | 473 kts | 112° |
| 2026-05-07 16:37 | 39.88421 | -4.21117 | 39939 ft | 470 kts | 126° |
| 2026-05-07 16:38 | 39.84691 | -4.14182 | 39914 ft | 471 kts | 122° |
| 2026-05-07 16:38 | 39.83370 | -4.10257 | 39914 ft | 473 kts | 107° |
| 2026-05-07 16:38 | 39.82735 | -4.06035 | 39946 ft | 476 kts | 101° |
| 2026-05-07 16:39 | 39.82350 | -3.97493 | 39935 ft | 479 kts | 79° |
| 2026-05-07 16:39 | 39.83294 | -3.93333 | 39937 ft | 480 kts | 66° |
| 2026-05-07 16:39 | 39.84890 | -3.89534 | 39926 ft | 480 kts | 53° |
| 2026-05-07 16:40 | 39.89310 | -3.83083 | 39916 ft | 481 kts | 45° |
| 2026-05-07 16:40 | 39.93983 | -3.76822 | 39938 ft | 481 kts | 45° |
| 2026-05-07 16:41 | 39.98634 | -3.70616 | 39954 ft | 481 kts | 45° |
| 2026-05-07 16:41 | 40.03303 | -3.64375 | 39949 ft | 480 kts | 45° |
| 2026-05-07 16:42 | 40.07982 | -3.58106 | 39941 ft | 480 kts | 45° |
| 2026-05-07 16:42 | 40.12617 | -3.51883 | 39942 ft | 478 kts | 45° |
| 2026-05-07 16:42 | 40.14896 | -3.48819 | 39942 ft | 461 kts | 45° |
| 2026-05-07 16:43 | 40.17096 | -3.45855 | 39961 ft | 445 kts | 45° |
| 2026-05-07 16:43 | 40.19192 | -3.42997 | 39943 ft | 430 kts | 45° |
| 2026-05-07 16:43 | 40.21245 | -3.40198 | 39964 ft | 423 kts | 45° |
| 2026-05-07 16:44 | 40.25313 | -3.34659 | 39936 ft | 419 kts | 45° |
| 2026-05-07 16:44 | 40.29335 | -3.29173 | 39965 ft | 420 kts | 45° |
| 2026-05-07 16:45 | 40.33389 | -3.23641 | 39946 ft | 420 kts | 45° |
| 2026-05-07 16:45 | 40.37430 | -3.18120 | 39964 ft | 420 kts | 45° |
| 2026-05-07 16:46 | 40.41456 | -3.12613 | 39955 ft | 420 kts | 45° |
| 2026-05-07 16:46 | 40.45513 | -3.07069 | 39966 ft | 420 kts | 45° |
| 2026-05-07 16:47 | 40.49561 | -3.01537 | 39956 ft | 418 kts | 45° |
| 2026-05-07 16:47 | 40.53594 | -2.96018 | 39963 ft | 419 kts | 45° |
| 2026-05-07 16:48 | 40.57633 | -2.90485 | 39960 ft | 419 kts | 45° |
| 2026-05-07 16:48 | 40.61649 | -2.84977 | 39963 ft | 419 kts | 45° |
| 2026-05-07 16:49 | 40.65691 | -2.79428 | 39968 ft | 419 kts | 45° |
| 2026-05-07 16:49 | 40.69731 | -2.73876 | 39956 ft | 419 kts | 46° |
| 2026-05-07 16:50 | 40.73729 | -2.68376 | 39973 ft | 419 kts | 45° |
| 2026-05-07 16:50 | 40.77766 | -2.62815 | 39967 ft | 419 kts | 45° |
| 2026-05-07 16:51 | 40.81802 | -2.57246 | 39967 ft | 419 kts | 45° |
| 2026-05-07 16:51 | 40.85815 | -2.51704 | 39962 ft | 419 kts | 45° |
| 2026-05-07 16:52 | 40.89838 | -2.46145 | 39984 ft | 419 kts | 46° |
| 2026-05-07 16:52 | 40.93865 | -2.40579 | 39963 ft | 417 kts | 46° |
| 2026-05-07 16:53 | 40.97881 | -2.35021 | 39975 ft | 417 kts | 46° |
| 2026-05-07 16:53 | 41.01884 | -2.29482 | 39974 ft | 418 kts | 46° |
| 2026-05-07 16:54 | 41.05908 | -2.23903 | 39981 ft | 419 kts | 46° |
| 2026-05-07 16:54 | 41.09919 | -2.18336 | 39976 ft | 420 kts | 46° |
| 2026-05-07 16:55 | 41.13962 | -2.12728 | 39979 ft | 420 kts | 46° |
| 2026-05-07 16:55 | 41.18009 | -2.07121 | 39977 ft | 420 kts | 46° |
| 2026-05-07 16:56 | 41.22064 | -2.01496 | 39973 ft | 420 kts | 46° |
| 2026-05-07 16:56 | 41.28107 | -1.93096 | 39992 ft | 420 kts | 46° |
| 2026-05-07 16:57 | 41.32130 | -1.87495 | 39973 ft | 421 kts | 46° |
| 2026-05-07 16:57 | 41.36189 | -1.81827 | 39988 ft | 422 kts | 46° |
| 2026-05-07 16:58 | 41.40231 | -1.76173 | 39979 ft | 421 kts | 46° |
| 2026-05-07 16:58 | 41.44243 | -1.70552 | 39996 ft | 421 kts | 46° |